sensor_id;sensor_type;location;lat;lon;timestamp;noise_LAeq;noise_LA_min;noise_LA_max;noise_LA01;noise_LA95
72736;Laerm;60856;53.238;10.448;2023-08-07T00:00:50;54.58;53.42;55.73;;
72736;Laerm;60856;53.238;10.448;2023-08-07T00:03:15;54.58;53.59;55.93;;
72736;Laerm;60856;53.238;10.448;2023-08-07T00:05:47;54.57;53.56;55.65;;
72736;Laerm;60856;53.238;10.448;2023-08-07T00:08:12;54.56;53.57;55.66;;
72736;Laerm;60856;53.238;10.448;2023-08-07T00:10:37;54.57;53.48;55.82;;
72736;Laerm;60856;53.238;10.448;2023-08-07T00:13:03;54.58;53.56;55.67;;
72736;Laerm;60856;53.238;10.448;2023-08-07T00:15:28;54.57;53.43;55.82;;
72736;Laerm;60856;53.238;10.448;2023-08-07T00:17:54;54.57;53.58;55.91;;
72736;Laerm;60856;53.238;10.448;2023-08-07T00:20:19;54.58;53.51;55.76;;
72736;Laerm;60856;53.238;10.448;2023-08-07T00:22:44;54.57;53.62;55.63;;
72736;Laerm;60856;53.238;10.448;2023-08-07T00:25:09;54.57;53.50;55.60;;
72736;Laerm;60856;53.238;10.448;2023-08-07T00:27:35;54.54;53.58;55.55;;
72736;Laerm;60856;53.238;10.448;2023-08-07T00:30:00;54.55;53.55;55.64;;
72736;Laerm;60856;53.238;10.448;2023-08-07T00:32:25;54.56;53.41;55.68;;
72736;Laerm;60856;53.238;10.448;2023-08-07T00:34:50;54.54;53.61;55.64;;
72736;Laerm;60856;53.238;10.448;2023-08-07T00:37:16;54.54;53.50;55.69;;
72736;Laerm;60856;53.238;10.448;2023-08-07T00:39:41;54.54;53.37;55.73;;
72736;Laerm;60856;53.238;10.448;2023-08-07T00:42:06;54.54;53.53;55.62;;
72736;Laerm;60856;53.238;10.448;2023-08-07T00:44:31;54.56;53.49;55.74;;
72736;Laerm;60856;53.238;10.448;2023-08-07T00:46:57;54.55;53.58;55.61;;
72736;Laerm;60856;53.238;10.448;2023-08-07T00:49:22;54.55;53.41;55.83;;
72736;Laerm;60856;53.238;10.448;2023-08-07T00:51:47;54.54;53.40;55.70;;
72736;Laerm;60856;53.238;10.448;2023-08-07T00:54:14;54.55;53.48;55.67;;
72736;Laerm;60856;53.238;10.448;2023-08-07T00:56:40;54.54;53.38;55.75;;
72736;Laerm;60856;53.238;10.448;2023-08-07T00:59:05;54.55;53.41;55.79;;
72736;Laerm;60856;53.238;10.448;2023-08-07T01:01:31;54.54;53.54;55.69;;
72736;Laerm;60856;53.238;10.448;2023-08-07T01:03:56;54.54;53.40;55.64;;
72736;Laerm;60856;53.238;10.448;2023-08-07T01:06:22;54.55;53.58;55.67;;
72736;Laerm;60856;53.238;10.448;2023-08-07T01:08:47;54.52;53.50;55.80;;
72736;Laerm;60856;53.238;10.448;2023-08-07T01:12:00;54.53;53.36;55.74;;
72736;Laerm;60856;53.238;10.448;2023-08-07T01:16:33;54.52;53.41;55.69;;
72736;Laerm;60856;53.238;10.448;2023-08-07T01:19:00;54.52;53.50;55.59;;
72736;Laerm;60856;53.238;10.448;2023-08-07T01:21:26;54.50;53.47;55.59;;
72736;Laerm;60856;53.238;10.448;2023-08-07T01:23:51;54.51;53.38;55.92;;
72736;Laerm;60856;53.238;10.448;2023-08-07T01:26:17;54.51;53.04;55.75;;
72736;Laerm;60856;53.238;10.448;2023-08-07T01:28:46;54.50;53.38;55.82;;
72736;Laerm;60856;53.238;10.448;2023-08-07T01:31:15;54.50;53.48;55.81;;
72736;Laerm;60856;53.238;10.448;2023-08-07T01:33:48;54.51;53.41;55.72;;
72736;Laerm;60856;53.238;10.448;2023-08-07T01:36:15;54.51;53.27;55.63;;
72736;Laerm;60856;53.238;10.448;2023-08-07T01:38:41;54.50;53.42;55.62;;
72736;Laerm;60856;53.238;10.448;2023-08-07T01:41:06;54.51;53.36;55.92;;
72736;Laerm;60856;53.238;10.448;2023-08-07T01:43:32;54.50;53.48;55.68;;
72736;Laerm;60856;53.238;10.448;2023-08-07T01:45:57;54.49;53.37;55.60;;
72736;Laerm;60856;53.238;10.448;2023-08-07T01:48:23;54.50;53.43;55.49;;
72736;Laerm;60856;53.238;10.448;2023-08-07T01:50:48;54.49;53.33;55.74;;
72736;Laerm;60856;53.238;10.448;2023-08-07T01:53:14;54.50;53.48;55.73;;
72736;Laerm;60856;53.238;10.448;2023-08-07T01:55:39;54.50;53.40;55.87;;
72736;Laerm;60856;53.238;10.448;2023-08-07T01:58:04;54.50;53.27;55.67;;
72736;Laerm;60856;53.238;10.448;2023-08-07T02:00:29;54.50;53.39;55.69;;
72736;Laerm;60856;53.238;10.448;2023-08-07T02:02:55;54.50;53.45;55.59;;
72736;Laerm;60856;53.238;10.448;2023-08-07T02:05:20;54.49;53.44;55.96;;
72736;Laerm;60856;53.238;10.448;2023-08-07T02:07:45;54.50;53.35;55.56;;
72736;Laerm;60856;53.238;10.448;2023-08-07T02:10:10;54.51;53.59;55.61;;
72736;Laerm;60856;53.238;10.448;2023-08-07T02:12:36;54.51;53.42;55.80;;
72736;Laerm;60856;53.238;10.448;2023-08-07T02:15:01;54.52;53.42;55.69;;
72736;Laerm;60856;53.238;10.448;2023-08-07T02:17:30;54.51;53.39;55.77;;
72736;Laerm;60856;53.238;10.448;2023-08-07T02:19:55;54.51;53.40;55.67;;
72736;Laerm;60856;53.238;10.448;2023-08-07T02:22:20;54.51;53.29;55.86;;
72736;Laerm;60856;53.238;10.448;2023-08-07T02:24:46;54.49;53.50;55.75;;
72736;Laerm;60856;53.238;10.448;2023-08-07T02:27:11;54.51;53.40;55.64;;
72736;Laerm;60856;53.238;10.448;2023-08-07T02:29:36;54.51;53.58;55.64;;
72736;Laerm;60856;53.238;10.448;2023-08-07T02:32:02;54.50;53.47;55.81;;
72736;Laerm;60856;53.238;10.448;2023-08-07T02:34:28;54.50;53.42;55.60;;
72736;Laerm;60856;53.238;10.448;2023-08-07T02:36:53;54.50;53.54;55.55;;
72736;Laerm;60856;53.238;10.448;2023-08-07T02:39:18;54.51;53.41;55.71;;
72736;Laerm;60856;53.238;10.448;2023-08-07T02:41:43;54.51;53.42;55.46;;
72736;Laerm;60856;53.238;10.448;2023-08-07T02:44:08;54.49;53.27;55.66;;
72736;Laerm;60856;53.238;10.448;2023-08-07T02:46:34;54.50;53.35;55.81;;
72736;Laerm;60856;53.238;10.448;2023-08-07T02:49:01;54.51;53.35;55.61;;
72736;Laerm;60856;53.238;10.448;2023-08-07T02:51:26;54.52;53.26;55.72;;
72736;Laerm;60856;53.238;10.448;2023-08-07T02:53:51;54.50;53.51;55.59;;
72736;Laerm;60856;53.238;10.448;2023-08-07T02:56:16;54.49;53.28;55.68;;
72736;Laerm;60856;53.238;10.448;2023-08-07T02:58:42;54.49;53.41;55.74;;
72736;Laerm;60856;53.238;10.448;2023-08-07T03:01:07;54.50;53.41;55.54;;
72736;Laerm;60856;53.238;10.448;2023-08-07T03:03:33;54.49;53.30;55.81;;
72736;Laerm;60856;53.238;10.448;2023-08-07T03:05:58;54.50;53.45;55.90;;
72736;Laerm;60856;53.238;10.448;2023-08-07T03:08:23;54.50;53.45;55.70;;
72736;Laerm;60856;53.238;10.448;2023-08-07T03:10:55;54.49;53.36;55.63;;
72736;Laerm;60856;53.238;10.448;2023-08-07T03:13:21;54.50;53.41;55.61;;
72736;Laerm;60856;53.238;10.448;2023-08-07T03:15:46;54.48;53.41;55.69;;
72736;Laerm;60856;53.238;10.448;2023-08-07T03:18:14;54.49;53.24;55.61;;
72736;Laerm;60856;53.238;10.448;2023-08-07T03:20:39;54.48;53.53;55.59;;
72736;Laerm;60856;53.238;10.448;2023-08-07T03:23:04;54.49;53.43;55.72;;
72736;Laerm;60856;53.238;10.448;2023-08-07T03:25:29;54.49;53.56;55.55;;
72736;Laerm;60856;53.238;10.448;2023-08-07T03:27:55;54.48;53.46;55.63;;
72736;Laerm;60856;53.238;10.448;2023-08-07T03:30:20;54.48;53.52;55.71;;
72736;Laerm;60856;53.238;10.448;2023-08-07T03:32:45;54.50;53.30;55.55;;
72736;Laerm;60856;53.238;10.448;2023-08-07T03:38:13;54.49;53.39;55.70;;
72736;Laerm;60856;53.238;10.448;2023-08-07T03:40:38;54.48;53.37;55.50;;
72736;Laerm;60856;53.238;10.448;2023-08-07T03:43:04;54.49;53.53;55.71;;
72736;Laerm;60856;53.238;10.448;2023-08-07T03:45:29;54.49;53.51;55.79;;
72736;Laerm;60856;53.238;10.448;2023-08-07T03:47:54;54.50;53.36;55.68;;
72736;Laerm;60856;53.238;10.448;2023-08-07T03:50:20;54.51;53.41;55.57;;
72736;Laerm;60856;53.238;10.448;2023-08-07T03:52:45;54.52;53.31;55.73;;
72736;Laerm;60856;53.238;10.448;2023-08-07T03:55:10;54.54;53.55;55.96;;
72736;Laerm;60856;53.238;10.448;2023-08-07T03:57:35;54.55;53.52;55.68;;
72736;Laerm;60856;53.238;10.448;2023-08-07T04:00:01;54.55;53.58;55.62;;
72736;Laerm;60856;53.238;10.448;2023-08-07T04:02:26;54.56;53.57;55.61;;
72736;Laerm;60856;53.238;10.448;2023-08-07T04:04:52;54.58;53.39;56.04;;
72736;Laerm;60856;53.238;10.448;2023-08-07T04:07:18;54.60;53.30;55.65;;
72736;Laerm;60856;53.238;10.448;2023-08-07T04:09:43;54.60;53.57;55.61;;
72736;Laerm;60856;53.238;10.448;2023-08-07T04:12:08;54.61;53.44;55.79;;
72736;Laerm;60856;53.238;10.448;2023-08-07T04:14:34;54.62;53.64;55.84;;
72736;Laerm;60856;53.238;10.448;2023-08-07T04:16:59;54.62;53.51;55.65;;
72736;Laerm;60856;53.238;10.448;2023-08-07T04:19:25;54.61;53.40;55.82;;
72736;Laerm;60856;53.238;10.448;2023-08-07T04:21:50;54.61;53.40;56.03;;
72736;Laerm;60856;53.238;10.448;2023-08-07T04:24:16;54.64;53.59;56.10;;
72736;Laerm;60856;53.238;10.448;2023-08-07T04:26:41;54.69;53.49;55.68;;
72736;Laerm;60856;53.238;10.448;2023-08-07T04:29:06;54.72;53.60;55.70;;
72736;Laerm;60856;53.238;10.448;2023-08-07T04:31:32;54.73;53.70;55.86;;
72736;Laerm;60856;53.238;10.448;2023-08-07T04:33:57;54.74;53.72;55.96;;
72736;Laerm;60856;53.238;10.448;2023-08-07T04:36:23;54.73;53.69;55.80;;
72736;Laerm;60856;53.238;10.448;2023-08-07T04:38:49;54.74;53.75;55.75;;
72736;Laerm;60856;53.238;10.448;2023-08-07T04:41:14;54.78;53.74;55.80;;
72736;Laerm;60856;53.238;10.448;2023-08-07T04:43:39;54.79;53.76;56.06;;
72736;Laerm;60856;53.238;10.448;2023-08-07T04:46:05;54.81;53.79;55.98;;
72736;Laerm;60856;53.238;10.448;2023-08-07T04:48:30;54.82;53.72;56.12;;
72736;Laerm;60856;53.238;10.448;2023-08-07T04:50:56;54.85;53.68;55.83;;
72736;Laerm;60856;53.238;10.448;2023-08-07T04:53:21;54.86;53.68;56.04;;
72736;Laerm;60856;53.238;10.448;2023-08-07T04:55:46;54.89;53.69;55.95;;
72736;Laerm;60856;53.238;10.448;2023-08-07T04:58:11;54.89;53.94;55.94;;
72736;Laerm;60856;53.238;10.448;2023-08-07T05:00:37;54.92;53.85;55.92;;
72736;Laerm;60856;53.238;10.448;2023-08-07T05:03:02;54.94;53.95;55.92;;
72736;Laerm;60856;53.238;10.448;2023-08-07T05:05:27;54.96;53.81;56.04;;
72736;Laerm;60856;53.238;10.448;2023-08-07T05:07:54;54.98;53.92;56.12;;
72736;Laerm;60856;53.238;10.448;2023-08-07T05:10:19;54.97;53.79;56.03;;
72736;Laerm;60856;53.238;10.448;2023-08-07T05:12:44;55.01;54.02;56.20;;
72736;Laerm;60856;53.238;10.448;2023-08-07T05:15:10;55.06;53.50;56.13;;
72736;Laerm;60856;53.238;10.448;2023-08-07T05:17:35;55.08;54.03;56.11;;
72736;Laerm;60856;53.238;10.448;2023-08-07T05:20:00;55.12;54.07;56.20;;
72736;Laerm;60856;53.238;10.448;2023-08-07T05:22:25;55.13;54.13;56.41;;
72736;Laerm;60856;53.238;10.448;2023-08-07T05:24:51;55.12;53.94;56.36;;
72736;Laerm;60856;53.238;10.448;2023-08-07T05:27:16;55.09;53.96;56.20;;
72736;Laerm;60856;53.238;10.448;2023-08-07T05:29:41;55.09;53.91;56.11;;
72736;Laerm;60856;53.238;10.448;2023-08-07T05:32:10;55.14;54.11;56.11;;
72736;Laerm;60856;53.238;10.448;2023-08-07T05:34:35;55.08;53.94;56.20;;
72736;Laerm;60856;53.238;10.448;2023-08-07T05:37:01;55.31;54.26;56.54;;
72736;Laerm;60856;53.238;10.448;2023-08-07T05:39:26;55.45;54.45;56.49;;
72736;Laerm;60856;53.238;10.448;2023-08-07T05:41:51;55.52;54.50;56.70;;
72736;Laerm;60856;53.238;10.448;2023-08-07T05:44:18;55.28;54.27;56.24;;
72736;Laerm;60856;53.238;10.448;2023-08-07T05:49:46;55.31;54.29;56.31;;
72736;Laerm;60856;53.238;10.448;2023-08-07T05:52:12;55.31;54.27;56.28;;
72736;Laerm;60856;53.238;10.448;2023-08-07T05:54:37;55.40;54.46;56.68;;
72736;Laerm;60856;53.238;10.448;2023-08-07T05:57:02;55.81;54.60;56.96;;
72736;Laerm;60856;53.238;10.448;2023-08-07T05:59:28;56.17;55.00;57.26;;
72736;Laerm;60856;53.238;10.448;2023-08-07T06:01:54;55.65;54.35;56.83;;
72736;Laerm;60856;53.238;10.448;2023-08-07T06:04:20;55.37;54.20;56.42;;
72736;Laerm;60856;53.238;10.448;2023-08-07T06:06:46;55.82;54.65;57.16;;
72736;Laerm;60856;53.238;10.448;2023-08-07T06:09:11;56.20;55.01;57.18;;
72736;Laerm;60856;53.238;10.448;2023-08-07T06:11:37;56.02;54.72;57.19;;
72736;Laerm;60856;53.238;10.448;2023-08-07T06:14:02;55.71;54.76;57.02;;
72736;Laerm;60856;53.238;10.448;2023-08-07T06:16:28;55.91;54.78;57.23;;
72736;Laerm;60856;53.238;10.448;2023-08-07T06:18:53;55.98;54.92;57.15;;
72736;Laerm;60856;53.238;10.448;2023-08-07T06:21:18;55.99;54.95;56.97;;
72736;Laerm;60856;53.238;10.448;2023-08-07T06:23:45;55.72;54.53;56.92;;
72736;Laerm;60856;53.238;10.448;2023-08-07T06:26:10;55.48;54.47;56.56;;
72736;Laerm;60856;53.238;10.448;2023-08-07T06:28:35;55.19;54.19;56.23;;
72736;Laerm;60856;53.238;10.448;2023-08-07T06:31:04;55.32;54.14;56.41;;
72736;Laerm;60856;53.238;10.448;2023-08-07T06:33:30;55.51;54.26;56.54;;
72736;Laerm;60856;53.238;10.448;2023-08-07T06:35:57;55.67;54.56;56.88;;
72736;Laerm;60856;53.238;10.448;2023-08-07T06:38:22;55.53;54.52;56.64;;
72736;Laerm;60856;53.238;10.448;2023-08-07T06:40:47;55.43;54.40;56.49;;
72736;Laerm;60856;53.238;10.448;2023-08-07T06:43:12;55.42;54.40;56.45;;
72736;Laerm;60856;53.238;10.448;2023-08-07T06:45:37;55.75;54.65;56.85;;
72736;Laerm;60856;53.238;10.448;2023-08-07T06:48:03;56.01;54.96;57.09;;
72736;Laerm;60856;53.238;10.448;2023-08-07T06:50:28;56.40;55.32;57.75;;
72736;Laerm;60856;53.238;10.448;2023-08-07T06:52:53;56.72;55.37;57.88;;
72736;Laerm;60856;53.238;10.448;2023-08-07T06:55:19;56.94;55.64;58.00;;
72736;Laerm;60856;53.238;10.448;2023-08-07T06:57:44;57.06;56.00;58.09;;
72736;Laerm;60856;53.238;10.448;2023-08-07T07:00:10;56.95;55.81;58.12;;
72736;Laerm;60856;53.238;10.448;2023-08-07T07:02:36;56.85;55.74;58.01;;
72736;Laerm;60856;53.238;10.448;2023-08-07T07:05:01;56.93;55.83;58.20;;
72736;Laerm;60856;53.238;10.448;2023-08-07T07:07:26;56.92;55.63;57.99;;
72736;Laerm;60856;53.238;10.448;2023-08-07T07:09:51;56.92;55.83;58.02;;
72736;Laerm;60856;53.238;10.448;2023-08-07T07:12:17;56.69;55.54;57.82;;
72736;Laerm;60856;53.238;10.448;2023-08-07T07:14:42;56.37;55.20;57.89;;
72736;Laerm;60856;53.238;10.448;2023-08-07T07:17:07;56.88;55.51;58.05;;
72736;Laerm;60856;53.238;10.448;2023-08-07T07:19:32;56.83;55.54;58.00;;
72736;Laerm;60856;53.238;10.448;2023-08-07T07:21:58;56.13;54.96;57.27;;
72736;Laerm;60856;53.238;10.448;2023-08-07T07:24:23;55.86;54.60;57.28;;
72736;Laerm;60856;53.238;10.448;2023-08-07T07:26:48;55.73;54.69;56.79;;
72736;Laerm;60856;53.238;10.448;2023-08-07T07:29:13;55.96;54.91;57.03;;
72736;Laerm;60856;53.238;10.448;2023-08-07T07:31:38;55.97;54.88;57.67;;
72736;Laerm;60856;53.238;10.448;2023-08-07T07:34:04;55.94;54.90;57.18;;
72736;Laerm;60856;53.238;10.448;2023-08-07T07:36:29;55.98;54.81;57.10;;
72736;Laerm;60856;53.238;10.448;2023-08-07T07:38:54;55.57;54.37;56.63;;
72736;Laerm;60856;53.238;10.448;2023-08-07T07:41:19;55.37;54.29;56.63;;
72736;Laerm;60856;53.238;10.448;2023-08-07T07:43:44;55.22;54.21;56.46;;
72736;Laerm;60856;53.238;10.448;2023-08-07T07:46:11;55.01;54.00;56.25;;
72736;Laerm;60856;53.238;10.448;2023-08-07T07:48:36;54.97;53.98;56.17;;
72736;Laerm;60856;53.238;10.448;2023-08-07T07:51:02;55.03;54.01;56.01;;
72736;Laerm;60856;53.238;10.448;2023-08-07T07:53:27;55.27;54.17;56.57;;
72736;Laerm;60856;53.238;10.448;2023-08-07T07:55:53;55.62;54.53;56.84;;
72736;Laerm;60856;53.238;10.448;2023-08-07T07:58:19;56.11;55.12;57.24;;
72736;Laerm;60856;53.238;10.448;2023-08-07T08:00:44;56.22;55.16;57.32;;
72736;Laerm;60856;53.238;10.448;2023-08-07T08:03:10;56.82;55.68;57.90;;
72736;Laerm;60856;53.238;10.448;2023-08-07T08:05:35;56.78;55.78;57.83;;
72736;Laerm;60856;53.238;10.448;2023-08-07T08:08:00;56.49;55.24;57.56;;
72736;Laerm;60856;53.238;10.448;2023-08-07T08:10:26;56.52;55.44;57.73;;
72736;Laerm;60856;53.238;10.448;2023-08-07T08:12:52;56.11;55.02;57.48;;
72736;Laerm;60856;53.238;10.448;2023-08-07T08:15:17;55.59;54.46;56.64;;
72736;Laerm;60856;53.238;10.448;2023-08-07T08:17:42;55.31;54.21;56.30;;
72736;Laerm;60856;53.238;10.448;2023-08-07T08:20:08;55.11;54.00;56.35;;
72736;Laerm;60856;53.238;10.448;2023-08-07T08:22:33;55.01;53.93;56.08;;
72736;Laerm;60856;53.238;10.448;2023-08-07T08:24:58;55.08;53.86;56.29;;
72736;Laerm;60856;53.238;10.448;2023-08-07T08:27:24;55.21;54.07;56.21;;
72736;Laerm;60856;53.238;10.448;2023-08-07T08:29:50;55.46;54.08;56.64;;
72736;Laerm;60856;53.238;10.448;2023-08-07T08:32:15;55.82;54.74;57.02;;
72736;Laerm;60856;53.238;10.448;2023-08-07T08:34:40;56.19;55.13;57.22;;
72736;Laerm;60856;53.238;10.448;2023-08-07T08:37:06;56.70;55.54;57.95;;
72736;Laerm;60856;53.238;10.448;2023-08-07T08:39:31;56.65;55.67;57.83;;
72736;Laerm;60856;53.238;10.448;2023-08-07T08:41:56;56.46;55.33;57.46;;
72736;Laerm;60856;53.238;10.448;2023-08-07T08:47:25;55.83;54.47;57.30;;
72736;Laerm;60856;53.238;10.448;2023-08-07T08:49:53;55.46;54.53;56.58;;
72736;Laerm;60856;53.238;10.448;2023-08-07T08:52:19;55.36;54.41;56.43;;
72736;Laerm;60856;53.238;10.448;2023-08-07T08:54:46;55.47;54.46;56.60;;
72736;Laerm;60856;53.238;10.448;2023-08-07T08:57:11;55.54;54.41;56.70;;
72736;Laerm;60856;53.238;10.448;2023-08-07T08:59:39;56.18;55.04;57.28;;
72736;Laerm;60856;53.238;10.448;2023-08-07T09:02:05;56.59;55.47;57.63;;
72736;Laerm;60856;53.238;10.448;2023-08-07T09:04:30;56.76;55.56;57.88;;
72736;Laerm;60856;53.238;10.448;2023-08-07T09:06:55;56.82;55.61;57.90;;
72736;Laerm;60856;53.238;10.448;2023-08-07T09:09:21;56.83;55.85;57.89;;
72736;Laerm;60856;53.238;10.448;2023-08-07T09:11:49;56.72;55.67;57.64;;
72736;Laerm;60856;53.238;10.448;2023-08-07T09:14:16;56.65;55.61;57.79;;
72736;Laerm;60856;53.238;10.448;2023-08-07T09:16:43;56.75;55.74;57.82;;
72736;Laerm;60856;53.238;10.448;2023-08-07T09:19:09;56.78;55.79;57.78;;
72736;Laerm;60856;53.238;10.448;2023-08-07T09:21:34;56.77;55.58;57.87;;
72736;Laerm;60856;53.238;10.448;2023-08-07T09:23:59;56.75;55.78;57.80;;
72736;Laerm;60856;53.238;10.448;2023-08-07T09:26:25;56.74;55.65;57.78;;
72736;Laerm;60856;53.238;10.448;2023-08-07T09:28:51;56.77;55.52;57.77;;
72736;Laerm;60856;53.238;10.448;2023-08-07T09:31:17;56.83;55.65;57.94;;
72736;Laerm;60856;53.238;10.448;2023-08-07T09:33:42;56.86;55.70;57.81;;
72736;Laerm;60856;53.238;10.448;2023-08-07T09:36:07;56.88;55.90;57.88;;
72736;Laerm;60856;53.238;10.448;2023-08-07T09:38:32;56.78;55.80;57.76;;
72736;Laerm;60856;53.238;10.448;2023-08-07T09:41:01;56.64;55.65;57.71;;
72736;Laerm;60856;53.238;10.448;2023-08-07T09:43:28;56.58;55.57;57.71;;
72736;Laerm;60856;53.238;10.448;2023-08-07T09:46:01;56.82;55.67;57.90;;
72736;Laerm;60856;53.238;10.448;2023-08-07T09:48:26;56.66;55.55;57.74;;
72736;Laerm;60856;53.238;10.448;2023-08-07T09:53:55;56.66;55.62;57.65;;
72736;Laerm;60856;53.238;10.448;2023-08-07T09:56:20;56.72;55.63;57.77;;
72736;Laerm;60856;53.238;10.448;2023-08-07T09:58:48;56.77;55.83;57.81;;
72736;Laerm;60856;53.238;10.448;2023-08-07T10:01:15;56.79;55.78;57.75;;
72736;Laerm;60856;53.238;10.448;2023-08-07T10:03:40;56.85;55.80;57.91;;
72736;Laerm;60856;53.238;10.448;2023-08-07T10:06:05;56.72;55.77;57.73;;
72736;Laerm;60856;53.238;10.448;2023-08-07T10:08:32;56.78;55.77;57.82;;
72736;Laerm;60856;53.238;10.448;2023-08-07T10:10:58;56.88;55.85;57.85;;
72736;Laerm;60856;53.238;10.448;2023-08-07T10:13:24;56.82;55.53;57.79;;
72736;Laerm;60856;53.238;10.448;2023-08-07T10:15:50;56.75;55.82;57.73;;
72736;Laerm;60856;53.238;10.448;2023-08-07T10:18:15;56.77;55.72;57.91;;
72736;Laerm;60856;53.238;10.448;2023-08-07T10:20:41;56.86;55.70;57.84;;
72736;Laerm;60856;53.238;10.448;2023-08-07T10:23:09;56.62;55.64;57.67;;
72736;Laerm;60856;53.238;10.448;2023-08-07T10:25:34;56.54;55.57;57.50;;
72736;Laerm;60856;53.238;10.448;2023-08-07T10:28:00;56.50;55.46;57.51;;
72736;Laerm;60856;53.238;10.448;2023-08-07T10:33:29;56.67;55.55;57.67;;
72736;Laerm;60856;53.238;10.448;2023-08-07T10:35:55;56.25;55.11;57.62;;
72736;Laerm;60856;53.238;10.448;2023-08-07T10:38:23;55.79;54.78;56.94;;
72736;Laerm;60856;53.238;10.448;2023-08-07T10:43:23;55.56;54.57;56.68;;
72736;Laerm;60856;53.238;10.448;2023-08-07T10:45:49;55.63;54.56;56.95;;
72736;Laerm;60856;53.238;10.448;2023-08-07T10:48:17;55.59;54.60;56.81;;
72736;Laerm;60856;53.238;10.448;2023-08-07T10:50:49;55.51;54.49;56.48;;
72736;Laerm;60856;53.238;10.448;2023-08-07T10:56:03;56.36;55.25;57.62;;
72736;Laerm;60856;53.238;10.448;2023-08-07T11:03:40;56.50;55.46;57.45;;
72736;Laerm;60856;53.238;10.448;2023-08-07T11:06:05;56.60;55.51;57.79;;
72736;Laerm;60856;53.238;10.448;2023-08-07T11:08:31;56.54;55.52;57.78;;
72736;Laerm;60856;53.238;10.448;2023-08-07T11:10:56;56.43;55.35;57.66;;
72736;Laerm;60856;53.238;10.448;2023-08-07T11:13:23;56.38;55.36;57.39;;
72736;Laerm;60856;53.238;10.448;2023-08-07T11:15:48;56.31;55.26;57.42;;
72736;Laerm;60856;53.238;10.448;2023-08-07T11:18:14;56.45;55.25;57.56;;
72736;Laerm;60856;53.238;10.448;2023-08-07T11:20:41;56.50;55.09;57.80;;
72736;Laerm;60856;53.238;10.448;2023-08-07T11:23:06;56.47;55.40;57.63;;
72736;Laerm;60856;53.238;10.448;2023-08-07T11:25:32;56.49;55.31;57.69;;
72736;Laerm;60856;53.238;10.448;2023-08-07T11:27:57;56.52;55.33;57.58;;
72736;Laerm;60856;53.238;10.448;2023-08-07T11:30:23;56.57;55.34;57.64;;
72736;Laerm;60856;53.238;10.448;2023-08-07T11:32:48;56.62;55.55;57.60;;
72736;Laerm;60856;53.238;10.448;2023-08-07T11:35:14;56.59;55.46;57.59;;
72736;Laerm;60856;53.238;10.448;2023-08-07T11:37:48;56.56;55.53;57.58;;
72736;Laerm;60856;53.238;10.448;2023-08-07T11:40:13;56.58;55.63;57.59;;
72736;Laerm;60856;53.238;10.448;2023-08-07T11:42:40;56.52;55.53;57.49;;
72736;Laerm;60856;53.238;10.448;2023-08-07T11:45:05;56.44;55.47;57.42;;
72736;Laerm;60856;53.238;10.448;2023-08-07T11:47:31;56.61;55.57;57.70;;
72736;Laerm;60856;53.238;10.448;2023-08-07T11:49:56;56.43;55.47;57.61;;
72736;Laerm;60856;53.238;10.448;2023-08-07T11:52:21;55.91;54.88;56.98;;
72736;Laerm;60856;53.238;10.448;2023-08-07T11:54:48;55.72;54.51;56.78;;
72736;Laerm;60856;53.238;10.448;2023-08-07T11:57:15;56.08;54.99;57.06;;
72736;Laerm;60856;53.238;10.448;2023-08-07T11:59:40;56.26;54.85;57.15;;
72736;Laerm;60856;53.238;10.448;2023-08-07T12:02:08;56.24;55.15;57.31;;
72736;Laerm;60856;53.238;10.448;2023-08-07T12:04:35;56.31;55.39;57.21;;
72736;Laerm;60856;53.238;10.448;2023-08-07T12:07:00;56.30;55.34;57.39;;
72736;Laerm;60856;53.238;10.448;2023-08-07T12:09:25;56.38;55.37;57.25;;
72736;Laerm;60856;53.238;10.448;2023-08-07T12:11:55;56.49;55.38;57.62;;
72736;Laerm;60856;53.238;10.448;2023-08-07T12:14:20;56.41;55.27;57.61;;
72736;Laerm;60856;53.238;10.448;2023-08-07T12:16:45;55.95;54.80;57.24;;
72736;Laerm;60856;53.238;10.448;2023-08-07T12:19:10;55.62;54.52;56.67;;
72736;Laerm;60856;53.238;10.448;2023-08-07T12:21:36;55.74;54.51;57.17;;
72736;Laerm;60856;53.238;10.448;2023-08-07T12:24:01;56.22;55.14;57.21;;
72736;Laerm;60856;53.238;10.448;2023-08-07T12:26:26;56.47;55.36;57.47;;
72736;Laerm;60856;53.238;10.448;2023-08-07T12:28:52;56.44;55.43;57.42;;
72736;Laerm;60856;53.238;10.448;2023-08-07T12:31:18;56.26;55.20;57.33;;
72736;Laerm;60856;53.238;10.448;2023-08-07T12:33:43;56.42;55.41;57.36;;
72736;Laerm;60856;53.238;10.448;2023-08-07T12:36:08;56.43;55.44;57.49;;
72736;Laerm;60856;53.238;10.448;2023-08-07T12:38:35;56.43;55.26;57.48;;
72736;Laerm;60856;53.238;10.448;2023-08-07T12:41:00;56.48;55.55;57.57;;
72736;Laerm;60856;53.238;10.448;2023-08-07T12:43:27;56.40;55.50;57.40;;
72736;Laerm;60856;53.238;10.448;2023-08-07T12:45:52;56.42;55.49;57.44;;
72736;Laerm;60856;53.238;10.448;2023-08-07T12:48:18;56.23;55.17;57.34;;
72736;Laerm;60856;53.238;10.448;2023-08-07T12:50:43;56.26;54.87;57.66;;
72736;Laerm;60856;53.238;10.448;2023-08-07T12:53:09;56.44;55.50;57.55;;
72736;Laerm;60856;53.238;10.448;2023-08-07T12:55:34;56.46;55.53;57.40;;
72736;Laerm;60856;53.238;10.448;2023-08-07T12:57:59;56.35;55.29;57.34;;
72736;Laerm;60856;53.238;10.448;2023-08-07T13:00:25;56.26;55.23;57.19;;
72736;Laerm;60856;53.238;10.448;2023-08-07T13:02:51;56.21;55.21;57.20;;
72736;Laerm;60856;53.238;10.448;2023-08-07T13:05:17;56.28;54.96;57.17;;
72736;Laerm;60856;53.238;10.448;2023-08-07T13:07:43;56.39;55.42;57.39;;
72736;Laerm;60856;53.238;10.448;2023-08-07T13:10:09;56.37;55.34;57.40;;
72736;Laerm;60856;53.238;10.448;2023-08-07T13:12:36;56.15;55.04;57.18;;
72736;Laerm;60856;53.238;10.448;2023-08-07T13:15:02;56.12;54.98;57.10;;
72736;Laerm;60856;53.238;10.448;2023-08-07T13:17:28;56.24;55.29;57.49;;
72736;Laerm;60856;53.238;10.448;2023-08-07T13:22:56;56.31;55.28;57.32;;
72736;Laerm;60856;53.238;10.448;2023-08-07T13:25:21;56.45;55.49;57.46;;
72736;Laerm;60856;53.238;10.448;2023-08-07T13:27:46;56.40;55.40;57.63;;
72736;Laerm;60856;53.238;10.448;2023-08-07T13:30:11;56.24;55.12;57.32;;
72736;Laerm;60856;53.238;10.448;2023-08-07T13:32:37;56.10;55.00;57.12;;
72736;Laerm;60856;53.238;10.448;2023-08-07T13:35:02;55.92;54.78;57.07;;
72736;Laerm;60856;53.238;10.448;2023-08-07T13:37:28;55.85;54.57;56.80;;
72736;Laerm;60856;53.238;10.448;2023-08-07T13:39:53;55.86;54.72;57.02;;
72736;Laerm;60856;53.238;10.448;2023-08-07T13:42:19;55.98;54.78;56.97;;
72736;Laerm;60856;53.238;10.448;2023-08-07T13:44:44;56.09;54.94;57.04;;
72736;Laerm;60856;53.238;10.448;2023-08-07T13:47:10;56.12;55.07;57.28;;
72736;Laerm;60856;53.238;10.448;2023-08-07T13:49:36;55.86;54.75;56.85;;
72736;Laerm;60856;53.238;10.448;2023-08-07T13:52:01;55.71;54.56;56.77;;
72736;Laerm;60856;53.238;10.448;2023-08-07T13:54:27;55.67;54.59;57.05;;